Arches Natl Park, Utah
Current Conditions -  °F | °C
As of 11:53 PM on Tuesday 21 Oct 2014 (Local Time) from KCNY Reporting Station
Broken Clouds Broken Clouds  
Wind Chill: 16°   Ceiling: 9000
Heat Index: 16°   Visibility: 10mi
Dew Point:   Wind: 0mph
Humidity: 44%   Direction: NA
Pressure: 29.96"   Gusts: NA
Location:  38.7°N, 109.75°W
Report Text: KCNY 220553Z AUTO 00000KT 10SM BKN090 16/03 A2996 RMK AO2 SLP101 T01560033 10222 20150 51019
Loading
Personal Weather Stations






























Interactive Weather Map
Tropical Storm Tracking
New forecast layout! Learn more

10-Day Weather Forecast

Advertisements
Track Severe Weather on mobile